Terminal Aerodrome Forecast
Issued by NWS

Home | Current Version | Previous Version | Text Only | Print | Product List | Glossary On
Versions: 1 2 3 4 5 6 7 8 9 10 11 12 13 14 15 16 17 18 19 20 21 22 23
000
FTUS46 KMFR 301700
TAFRBG
TAF
KRBG 301739Z 3018/0118 00000KT P6SM SCT008 BKN050
     FM301900 36005KT P6SM BKN050
     FM302100 35007KT P6SM SCT050
     FM011200 VRB03KT 4SM BR OVC010
     FM011700 01003KT P6SM FEW015=

USA.gov is the U.S. government's official web portal to all federal, state and local government web resources and services.